createdAt,value
2022-12-03T00:10:18.932Z,24.50
2022-12-03T00:20:24.573Z,29.40
2022-12-03T00:30:28.164Z,29.90
2022-12-03T00:40:31.784Z,31.60
2022-12-03T00:50:35.414Z,30.80
2022-12-03T01:00:39.080Z,31.00
2022-12-03T01:10:42.672Z,31.50
2022-12-03T01:20:46.297Z,29.30
2022-12-03T01:31:22.398Z,27.60
2022-12-03T01:41:26.807Z,30.10
2022-12-03T01:51:31.171Z,30.70
2022-12-03T02:01:34.878Z,31.00
2022-12-03T02:11:49.956Z,30.20
2022-12-03T02:22:09.124Z,31.30
2022-12-03T02:32:12.738Z,31.40
2022-12-03T02:42:35.596Z,31.20
2022-12-03T02:52:41.117Z,27.90
2022-12-03T03:02:46.850Z,29.10
2022-12-03T03:12:53.046Z,29.30
2022-12-03T03:23:10.871Z,29.10
2022-12-03T03:33:16.275Z,27.70
2022-12-03T03:43:22.385Z,27.20
2022-12-03T03:53:26.562Z,28.10
2022-12-03T04:03:30.298Z,28.10
2022-12-03T04:13:33.846Z,27.60
2022-12-03T04:23:37.509Z,27.10
2022-12-03T04:33:59.893Z,29.60
2022-12-03T04:44:22.424Z,30.20
2022-12-03T04:54:27.336Z,27.00
2022-12-03T05:04:30.932Z,24.00
2022-12-03T05:14:38.076Z,25.00
2022-12-03T05:24:41.715Z,24.60
2022-12-03T05:34:45.353Z,23.80
2022-12-03T05:44:48.978Z,24.60
2022-12-03T05:54:52.868Z,21.30
2022-12-03T06:04:56.852Z,24.60
2022-12-03T06:15:00.686Z,24.40
2022-12-03T06:25:06.793Z,25.10
2022-12-03T06:35:10.836Z,25.90
2022-12-03T06:45:14.413Z,27.20
2022-12-03T06:55:18.025Z,24.90
2022-12-03T07:05:21.717Z,28.10
2022-12-03T07:15:25.336Z,29.20
2022-12-03T07:25:29.310Z,27.40
2022-12-03T07:35:32.867Z,31.00
2022-12-03T07:45:36.471Z,34.10
2022-12-03T07:55:40.103Z,37.90
2022-12-03T08:05:43.825Z,40.90
2022-12-03T08:15:47.463Z,41.40
2022-12-03T08:25:53.013Z,43.00
2022-12-03T08:35:56.638Z,43.20
2022-12-03T08:46:00.544Z,36.70
2022-12-03T09:07:22.530Z,44.60
2022-12-03T09:17:26.869Z,42.30
2022-12-03T09:27:30.576Z,41.50
2022-12-03T09:37:34.377Z,53.90
2022-12-03T09:47:40.689Z,47.30
2022-12-03T09:57:44.544Z,46.70
2022-12-03T10:07:50.929Z,51.80
2022-12-03T10:17:55.521Z,42.60
2022-12-03T10:28:01.830Z,46.30
2022-12-03T10:38:22.481Z,48.10
2022-12-03T10:48:27.658Z,45.80
2022-12-03T10:58:37.961Z,41.50
2022-12-03T11:08:45.024Z,41.00
2022-12-03T11:18:59.675Z,40.40
2022-12-03T11:29:04.765Z,42.20
2022-12-03T11:39:08.963Z,42.20
2022-12-03T11:49:31.676Z,40.80
2022-12-03T11:59:35.510Z,37.10
2022-12-03T12:09:53.744Z,38.20
2022-12-03T12:31:25.986Z,36.50
2022-12-03T12:41:29.763Z,35.60
2022-12-03T13:01:55.639Z,39.30
2022-12-03T13:12:04.154Z,37.70
2022-12-03T13:22:20.732Z,40.70
2022-12-03T13:32:44.275Z,38.10
2022-12-03T13:42:48.930Z,33.90
2022-12-03T14:03:13.228Z,36.60
2022-12-03T14:13:16.974Z,38.70
2022-12-03T14:23:29.390Z,38.50
2022-12-03T14:33:32.938Z,41.40
2022-12-03T14:43:36.496Z,44.10
2022-12-03T14:53:40.064Z,42.30
2022-12-03T15:03:43.687Z,48.70
2022-12-03T15:13:56.248Z,59.20
2022-12-03T15:24:09.131Z,51.20
2022-12-03T15:34:28.279Z,43.70
2022-12-03T15:44:32.065Z,47.80
2022-12-03T15:54:55.506Z,49.30
2022-12-03T16:05:20.125Z,42.00
2022-12-03T16:15:29.743Z,42.60
2022-12-03T16:26:01.855Z,41.70
2022-12-03T16:36:18.172Z,46.90
2022-12-03T16:57:34.206Z,53.40
2022-12-03T17:07:38.061Z,45.50
2022-12-03T17:17:41.819Z,36.40
2022-12-03T17:27:47.106Z,38.40
2022-12-03T17:37:50.937Z,39.30
2022-12-03T17:47:54.626Z,36.50
2022-12-03T17:57:58.354Z,40.50
2022-12-03T18:08:02.067Z,43.90
2022-12-03T18:18:05.956Z,43.50
2022-12-03T18:28:09.711Z,48.20
2022-12-03T18:38:16.399Z,42.80
2022-12-03T18:48:20.127Z,42.00
2022-12-03T18:58:24.938Z,43.10
2022-12-03T19:08:28.561Z,45.20
2022-12-03T19:18:32.339Z,48.50
2022-12-03T19:28:36.326Z,51.70
2022-12-03T19:38:39.939Z,48.90
2022-12-03T19:48:43.638Z,47.00
2022-12-03T19:58:48.339Z,37.10
2022-12-03T20:08:56.773Z,40.50
2022-12-03T20:19:03.178Z,48.20
2022-12-03T20:29:06.872Z,36.80
2022-12-03T20:39:10.620Z,44.40
2022-12-03T20:49:14.282Z,48.40
2022-12-03T20:59:18.600Z,43.40
2022-12-03T21:09:24.669Z,45.80
2022-12-03T21:19:28.398Z,52.70
2022-12-03T21:29:32.038Z,46.50
2022-12-03T21:39:35.915Z,43.90
2022-12-03T21:49:39.597Z,38.20
2022-12-03T21:59:43.228Z,40.80
2022-12-03T22:09:46.985Z,34.30
2022-12-03T22:19:50.811Z,38.70
2022-12-03T22:29:54.667Z,38.80
2022-12-03T22:39:58.757Z,37.10
2022-12-03T22:50:02.478Z,39.40
2022-12-03T23:00:10.166Z,36.40
2022-12-03T23:10:13.899Z,37.60
2022-12-03T23:20:17.545Z,37.80
2022-12-03T23:30:21.103Z,33.90
2022-12-03T23:40:24.765Z,39.20
2022-12-03T23:50:32.229Z,38.20
